createdAt,value
2023-04-17T00:00:00.220Z,984.7
2023-04-17T00:01:00.193Z,984.7
2023-04-17T00:02:00.227Z,984.9
2023-04-17T00:03:00.352Z,984.9
2023-04-17T00:04:00.356Z,984.9
2023-04-17T00:05:00.257Z,984.9
2023-04-17T00:06:00.186Z,984.9
2023-04-17T00:07:00.198Z,984.9
2023-04-17T00:08:00.221Z,984.9
2023-04-17T00:09:00.181Z,984.9
2023-04-17T00:10:00.229Z,984.9
2023-04-17T00:11:06.998Z,984.9
2023-04-17T00:12:00.203Z,984.9
2023-04-17T00:13:00.201Z,984.9
2023-04-17T00:14:00.195Z,984.9
2023-04-17T00:15:00.239Z,984.9
2023-04-17T00:16:00.238Z,984.9
2023-04-17T00:17:00.218Z,984.9
2023-04-17T00:18:00.306Z,984.9
2023-04-17T00:19:00.195Z,984.9
2023-04-17T00:20:00.195Z,984.9
2023-04-17T00:21:00.223Z,984.9
2023-04-17T00:22:00.201Z,984.9
2023-04-17T00:23:00.224Z,984.9
2023-04-17T00:24:00.220Z,984.9
2023-04-17T00:25:00.197Z,984.9
2023-04-17T00:26:00.195Z,984.9
2023-04-17T00:27:00.217Z,984.9
2023-04-17T00:28:00.205Z,984.9
2023-04-17T00:29:00.223Z,984.9
2023-04-17T00:30:00.207Z,984.9
2023-04-17T00:31:00.211Z,984.9
2023-04-17T00:32:00.265Z,984.9
2023-04-17T00:33:00.282Z,984.9
2023-04-17T00:34:00.209Z,984.9
2023-04-17T00:35:00.227Z,984.9
2023-04-17T00:36:00.222Z,984.9
2023-04-17T00:37:00.238Z,984.9
2023-04-17T00:38:00.229Z,984.9
2023-04-17T00:39:00.209Z,984.9
2023-04-17T00:40:00.219Z,984.9
2023-04-17T00:41:00.233Z,984.9
2023-04-17T00:42:00.244Z,984.9
2023-04-17T00:43:00.227Z,985.1
2023-04-17T00:44:00.241Z,985.1
2023-04-17T00:45:00.237Z,985.1
2023-04-17T00:46:00.270Z,985.1
2023-04-17T00:47:00.275Z,985.1
2023-04-17T00:48:00.308Z,985.1
2023-04-17T00:49:00.227Z,985.1
2023-04-17T00:50:00.277Z,985.1
2023-04-17T00:51:00.248Z,985.1
2023-04-17T00:52:00.254Z,985.1
2023-04-17T00:53:00.231Z,985.1
2023-04-17T00:54:00.243Z,984.9
2023-04-17T00:55:00.423Z,985.1
2023-04-17T00:56:00.232Z,984.9
2023-04-17T00:57:00.255Z,984.9
2023-04-17T00:58:00.287Z,985.1
2023-04-17T00:59:00.318Z,984.9
2023-04-17T01:00:00.335Z,985.1
2023-04-17T01:01:00.309Z,985.1
2023-04-17T01:02:00.401Z,985.4
2023-04-17T01:03:00.418Z,985.4
2023-04-17T01:04:00.418Z,985.4
2023-04-17T01:05:00.276Z,985.4
2023-04-17T01:06:00.244Z,985.1
2023-04-17T01:07:00.275Z,985.4
2023-04-17T01:08:00.247Z,985.1
2023-04-17T01:09:00.250Z,985.1
2023-04-17T01:10:00.263Z,985.4
2023-04-17T01:11:00.247Z,985.4
2023-04-17T01:12:00.276Z,985.1
2023-04-17T01:13:00.270Z,985.1
2023-04-17T01:14:00.277Z,985.4
2023-04-17T01:15:00.263Z,985.1
2023-04-17T01:16:00.254Z,985.4
2023-04-17T01:17:00.390Z,985.4
2023-04-17T01:18:00.384Z,985.1
2023-04-17T01:19:00.275Z,985.1
2023-04-17T01:20:00.320Z,985.1
2023-04-17T01:21:00.258Z,985.1
2023-04-17T01:22:00.280Z,985.1
2023-04-17T01:23:00.267Z,984.9
2023-04-17T01:24:00.287Z,984.9
2023-04-17T01:25:00.301Z,984.9
2023-04-17T01:26:00.262Z,984.9
2023-04-17T01:27:00.285Z,984.9
2023-04-17T01:28:00.286Z,985.1
2023-04-17T01:29:00.292Z,985.1
2023-04-17T01:30:00.276Z,984.9
2023-04-17T01:31:00.308Z,985.1
2023-04-17T01:32:00.294Z,985.4
2023-04-17T01:33:00.329Z,985.4
2023-04-17T01:34:00.292Z,985.4
2023-04-17T01:35:00.336Z,985.4
2023-04-17T01:36:00.270Z,985.4
2023-04-17T01:37:00.292Z,985.4
2023-04-17T01:38:00.281Z,985.4
2023-04-17T01:39:00.309Z,985.4
2023-04-17T01:40:00.312Z,985.4
2023-04-17T01:41:00.289Z,985.4
2023-04-17T01:42:00.302Z,985.4
2023-04-17T01:43:00.301Z,985.4
2023-04-17T01:44:00.642Z,985.4
2023-04-17T01:45:00.294Z,985.4
2023-04-17T01:46:00.351Z,985.4
2023-04-17T01:47:00.332Z,985.4
2023-04-17T01:48:00.303Z,985.4
2023-04-17T01:49:00.319Z,985.4
2023-04-17T01:50:00.287Z,985.4
2023-04-17T01:51:00.289Z,985.4
2023-04-17T01:52:00.334Z,985.4
2023-04-17T01:53:00.299Z,985.4
2023-04-17T01:54:00.310Z,985.4
2023-04-17T01:55:00.309Z,985.4
2023-04-17T01:56:00.305Z,985.4
2023-04-17T01:57:00.322Z,985.4
2023-04-17T01:58:00.468Z,985.4
2023-04-17T01:59:00.491Z,985.4
2023-04-17T02:00:00.325Z,985.4
2023-04-17T02:01:00.974Z,985.6
2023-04-17T02:02:01.087Z,985.6
2023-04-17T02:03:01.133Z,985.6
2023-04-17T02:04:01.160Z,985.6
2023-04-17T02:05:01.013Z,985.6
2023-04-17T02:06:00.982Z,985.6
2023-04-17T02:07:01.009Z,985.8
2023-04-17T02:08:01.018Z,985.4
2023-04-17T02:09:01.004Z,985.6
2023-04-17T02:10:01.025Z,985.6
2023-04-17T02:11:01.010Z,985.4
2023-04-17T02:12:00.980Z,985.4
2023-04-17T02:13:01.012Z,985.4
2023-04-17T02:14:01.000Z,985.4
2023-04-17T02:15:01.193Z,985.6
2023-04-17T02:16:01.091Z,985.6
2023-04-17T02:17:01.013Z,985.6
2023-04-17T02:18:01.046Z,985.6
2023-04-17T02:19:01.018Z,985.6
2023-04-17T02:20:01.058Z,985.8
2023-04-17T02:21:01.023Z,985.8
2023-04-17T02:22:01.020Z,985.8
2023-04-17T02:23:01.002Z,985.8
2023-04-17T02:24:01.007Z,985.6
2023-04-17T02:25:01.025Z,985.8
2023-04-17T02:26:01.056Z,985.8
2023-04-17T02:27:01.008Z,985.8
2023-04-17T02:28:01.065Z,985.8
2023-04-17T02:29:01.040Z,985.8
2023-04-17T02:30:01.012Z,985.8
2023-04-17T02:31:01.138Z,985.8
2023-04-17T02:32:01.036Z,985.8
2023-04-17T02:33:01.097Z,985.8
2023-04-17T02:34:01.015Z,985.8
2023-04-17T02:35:01.018Z,985.8
2023-04-17T02:36:01.038Z,985.8
2023-04-17T02:37:01.014Z,985.8
2023-04-17T02:38:01.015Z,985.8
2023-04-17T02:39:01.058Z,985.8
2023-04-17T02:40:01.020Z,985.8
2023-04-17T02:41:01.009Z,985.8
2023-04-17T02:42:01.017Z,985.8
2023-04-17T02:43:01.043Z,985.8
2023-04-17T02:44:01.048Z,985.8
2023-04-17T02:45:01.045Z,985.8
2023-04-17T02:46:01.028Z,985.8
2023-04-17T02:47:01.092Z,985.8
2023-04-17T02:48:01.129Z,985.8
2023-04-17T02:49:01.035Z,985.8
2023-04-17T02:50:01.049Z,985.8
2023-04-17T02:51:01.023Z,985.8
2023-04-17T02:52:01.031Z,985.8
2023-04-17T02:53:01.027Z,985.8
2023-04-17T02:54:01.045Z,985.8
2023-04-17T02:55:01.056Z,985.8
2023-04-17T02:56:01.050Z,985.8
2023-04-17T02:57:01.040Z,985.8
2023-04-17T02:58:01.070Z,985.8
2023-04-17T02:59:01.059Z,985.8
2023-04-17T03:00:01.029Z,985.6
2023-04-17T03:01:01.096Z,985.8
2023-04-17T03:02:01.130Z,985.6
2023-04-17T03:03:01.246Z,985.8
2023-04-17T03:04:01.432Z,985.6
2023-04-17T03:05:01.056Z,985.6
2023-04-17T03:06:01.045Z,985.6
2023-04-17T03:07:01.051Z,985.6
2023-04-17T03:08:01.056Z,985.8
2023-04-17T03:09:01.067Z,985.8
2023-04-17T03:10:01.070Z,985.6
2023-04-17T03:11:01.055Z,985.6
2023-04-17T03:12:01.062Z,985.6
2023-04-17T03:13:01.067Z,985.6
2023-04-17T03:14:01.083Z,985.6
2023-04-17T03:15:01.063Z,985.4
2023-04-17T03:16:01.130Z,985.6
2023-04-17T03:17:01.063Z,985.6
2023-04-17T03:18:01.163Z,985.6
2023-04-17T03:19:01.082Z,985.6
2023-04-17T03:20:01.076Z,985.4
2023-04-17T03:21:01.085Z,985.6
2023-04-17T03:22:01.072Z,985.6
2023-04-17T03:23:01.092Z,985.6
2023-04-17T03:24:01.064Z,985.6
2023-04-17T03:25:01.077Z,985.6
2023-04-17T03:26:01.074Z,985.6
2023-04-17T03:27:01.085Z,985.6
2023-04-17T03:28:01.083Z,985.6
2023-04-17T03:29:01.064Z,985.6
2023-04-17T03:30:01.072Z,985.6
2023-04-17T03:31:01.088Z,985.6
2023-04-17T03:32:01.115Z,985.8
2023-04-17T03:33:01.099Z,985.6
2023-04-17T03:34:01.074Z,985.6
2023-04-17T03:35:01.077Z,985.6
2023-04-17T03:36:01.087Z,985.6
2023-04-17T03:37:01.123Z,985.6
2023-04-17T03:38:01.074Z,985.4
2023-04-17T03:39:01.088Z,985.4
2023-04-17T03:40:01.086Z,985.4
2023-04-17T03:41:01.090Z,985.4
2023-04-17T03:42:01.102Z,985.6
2023-04-17T03:43:01.133Z,985.4
2023-04-17T03:44:01.080Z,985.6
2023-04-17T03:45:01.099Z,985.4
2023-04-17T03:46:01.135Z,985.4
2023-04-17T03:47:01.130Z,985.4
2023-04-17T03:48:01.145Z,985.6
2023-04-17T03:49:01.107Z,985.6
2023-04-17T03:50:01.111Z,985.6
2023-04-17T03:51:01.100Z,985.6
2023-04-17T03:52:01.160Z,985.6
2023-04-17T03:53:01.116Z,985.4
2023-04-17T03:54:01.096Z,985.4
2023-04-17T03:55:01.111Z,985.4
2023-04-17T03:56:01.136Z,985.4
2023-04-17T03:57:01.124Z,985.4
2023-04-17T03:58:01.106Z,985.4
2023-04-17T03:59:01.122Z,985.4
2023-04-17T04:00:01.138Z,985.4
2023-04-17T04:01:01.093Z,985.4
2023-04-17T04:02:01.271Z,985.4
2023-04-17T04:03:01.284Z,985.4
2023-04-17T04:04:01.392Z,985.4
2023-04-17T04:05:01.236Z,985.6
2023-04-17T04:06:01.093Z,985.6
2023-04-17T04:07:01.121Z,985.4
2023-04-17T04:08:01.095Z,985.6
2023-04-17T04:09:01.097Z,985.6
2023-04-17T04:10:01.132Z,985.6
2023-04-17T04:11:01.106Z,985.6
2023-04-17T04:12:01.121Z,985.6
2023-04-17T04:13:01.135Z,985.6
2023-04-17T04:14:01.119Z,985.6
2023-04-17T04:15:01.118Z,985.6
2023-04-17T04:16:01.329Z,985.6
2023-04-17T04:17:01.125Z,985.6
2023-04-17T04:18:01.150Z,985.6
2023-04-17T04:19:01.117Z,985.8
2023-04-17T04:20:01.128Z,985.8
2023-04-17T04:21:01.125Z,985.8
2023-04-17T04:22:01.130Z,985.8
2023-04-17T04:23:01.108Z,985.8
2023-04-17T04:24:01.102Z,985.8
2023-04-17T04:25:01.129Z,985.8
2023-04-17T04:26:01.115Z,985.8
2023-04-17T04:27:01.136Z,985.8
2023-04-17T04:28:01.135Z,985.8
2023-04-17T04:29:01.135Z,985.8
2023-04-17T04:30:01.137Z,985.8
2023-04-17T04:31:01.198Z,985.8
2023-04-17T04:32:01.138Z,985.8
2023-04-17T04:33:01.279Z,985.8
2023-04-17T04:34:01.154Z,985.8
2023-04-17T04:35:01.125Z,985.8
2023-04-17T04:36:01.396Z,985.8
2023-04-17T04:37:01.152Z,985.8
2023-04-17T04:38:01.129Z,985.8
2023-04-17T04:39:01.126Z,985.8
2023-04-17T04:40:01.151Z,985.8
2023-04-17T04:41:01.156Z,985.8
2023-04-17T04:42:01.155Z,985.8
2023-04-17T04:43:01.157Z,985.8
2023-04-17T04:44:01.155Z,985.8
2023-04-17T04:45:01.143Z,985.8
2023-04-17T04:46:01.144Z,985.8
2023-04-17T04:47:01.312Z,985.8
2023-04-17T04:48:01.243Z,985.8
2023-04-17T04:49:01.140Z,985.8
2023-04-17T04:50:01.147Z,985.8
2023-04-17T04:51:01.154Z,985.8
2023-04-17T04:52:01.164Z,985.8
2023-04-17T04:53:01.173Z,985.8
2023-04-17T04:54:01.164Z,985.8
2023-04-17T04:55:01.181Z,985.8
2023-04-17T04:56:01.146Z,985.8
2023-04-17T04:57:01.172Z,985.8
2023-04-17T04:58:01.182Z,985.8
2023-04-17T04:59:01.176Z,985.8
2023-04-17T05:00:01.162Z,985.6
2023-04-17T05:01:01.187Z,985.8
2023-04-17T05:02:01.296Z,985.8
2023-04-17T05:03:01.431Z,985.8
2023-04-17T05:04:01.357Z,985.8
2023-04-17T05:05:01.404Z,985.8
2023-04-17T05:06:01.187Z,985.8
2023-04-17T05:07:01.158Z,985.8
2023-04-17T05:08:01.187Z,985.6
2023-04-17T05:09:01.161Z,985.8
2023-04-17T05:10:01.165Z,985.8
2023-04-17T05:11:01.181Z,985.6
2023-04-17T05:12:01.168Z,985.8
2023-04-17T05:13:01.200Z,985.6
2023-04-17T05:14:01.218Z,985.8
2023-04-17T05:15:01.184Z,985.4
2023-04-17T05:16:01.644Z,985.6
2023-04-17T05:17:00.217Z,985.8
2023-04-17T05:18:00.313Z,985.6
2023-04-17T05:19:00.222Z,985.8
2023-04-17T05:20:00.216Z,985.8
2023-04-17T05:21:00.222Z,985.6
2023-04-17T05:22:00.250Z,985.8
2023-04-17T05:23:00.222Z,985.6
2023-04-17T05:24:00.232Z,985.6
2023-04-17T05:25:00.215Z,985.6
2023-04-17T05:26:00.226Z,985.8
2023-04-17T05:27:00.242Z,985.8
2023-04-17T05:28:00.219Z,985.6
2023-04-17T05:29:00.235Z,985.4
2023-04-17T05:30:00.239Z,985.4
2023-04-17T05:31:00.221Z,985.4
2023-04-17T05:32:00.287Z,985.4
2023-04-17T05:33:00.252Z,985.4
2023-04-17T05:34:00.243Z,985.4
2023-04-17T05:35:00.227Z,985.4
2023-04-17T05:36:00.232Z,985.4
2023-04-17T05:37:00.254Z,985.4
2023-04-17T05:38:00.236Z,985.4
2023-04-17T05:39:00.224Z,985.4
2023-04-17T05:40:00.232Z,985.4
2023-04-17T05:41:00.232Z,985.4
2023-04-17T05:42:00.252Z,985.4
2023-04-17T05:43:00.231Z,985.4
2023-04-17T05:44:00.899Z,985.4
2023-04-17T05:45:00.273Z,985.4
2023-04-17T05:46:00.315Z,985.4
2023-04-17T05:47:00.247Z,985.1
2023-04-17T05:48:00.310Z,985.4
2023-04-17T05:49:00.256Z,985.4
2023-04-17T05:51:00.244Z,985.4
2023-04-17T05:52:00.304Z,985.1
2023-04-17T05:53:00.237Z,985.1
2023-04-17T05:54:00.252Z,985.1
2023-04-17T05:55:00.295Z,984.9
2023-04-17T05:56:00.369Z,985.1
2023-04-17T05:57:00.364Z,984.9
2023-04-17T05:58:03.821Z,984.9
2023-04-17T05:59:00.490Z,984.9
2023-04-17T06:00:00.450Z,984.9
2023-04-17T06:01:00.415Z,984.9
2023-04-17T06:02:00.597Z,984.9
2023-04-17T06:03:00.687Z,984.9
2023-04-17T06:04:02.181Z,984.9
2023-04-17T06:05:00.853Z,984.9
2023-04-17T06:06:01.221Z,984.9
2023-04-17T06:07:00.454Z,984.7
2023-04-17T06:08:00.442Z,984.9
2023-04-17T06:09:00.398Z,984.7
2023-04-17T06:10:00.289Z,984.7
2023-04-17T06:11:00.282Z,984.9
2023-04-17T06:12:00.281Z,984.7
2023-04-17T06:13:00.272Z,984.5
2023-04-17T06:14:00.293Z,984.5
2023-04-17T06:15:00.312Z,984.5
2023-04-17T06:16:00.265Z,984.5
2023-04-17T06:17:00.347Z,984.5
2023-04-17T06:18:00.375Z,984.3
2023-04-17T06:19:00.291Z,984.3
2023-04-17T06:20:00.310Z,984.3
2023-04-17T06:21:00.289Z,984.3
2023-04-17T06:22:00.290Z,984.3
2023-04-17T06:23:00.275Z,984
2023-04-17T06:24:00.287Z,984
2023-04-17T06:25:00.285Z,984
2023-04-17T06:26:00.278Z,984
2023-04-17T06:27:00.292Z,984
2023-04-17T06:28:00.286Z,984
2023-04-17T06:29:00.300Z,984
2023-04-17T06:30:00.333Z,984
2023-04-17T06:31:00.346Z,983.8
2023-04-17T06:32:00.296Z,984
2023-04-17T06:33:00.364Z,983.8
2023-04-17T06:34:00.311Z,984
2023-04-17T06:35:00.301Z,983.8
2023-04-17T06:36:00.277Z,983.6
2023-04-17T06:37:00.324Z,983.8
2023-04-17T06:38:00.300Z,983.6
2023-04-17T06:39:00.343Z,983.6
2023-04-17T06:40:00.291Z,983.6
2023-04-17T06:41:00.302Z,983.6
2023-04-17T06:42:00.321Z,983.6
2023-04-17T06:43:00.304Z,983.4
2023-04-17T06:44:00.334Z,983
2023-04-17T06:45:00.305Z,982.7
2023-04-17T06:46:00.427Z,982.5
2023-04-17T06:47:02.385Z,982.1
2023-04-17T06:48:00.445Z,982.3
2023-04-17T06:49:00.319Z,982.3
2023-04-17T06:50:00.308Z,982.3
2023-04-17T06:51:00.322Z,982.1
2023-04-17T06:52:00.305Z,982.3
2023-04-17T06:53:00.328Z,981.4
2023-04-17T06:54:00.311Z,980.8
2023-04-17T06:55:00.338Z,981
2023-04-17T06:56:00.325Z,981.7
2023-04-17T06:57:00.337Z,981.4
2023-04-17T06:58:00.316Z,981.4
2023-04-17T06:59:01.383Z,980.8
2023-04-17T07:00:00.336Z,980.6
2023-04-17T07:01:00.324Z,981
2023-04-17T07:02:00.444Z,981
2023-04-17T07:03:00.373Z,981
2023-04-17T07:04:00.498Z,980.6
2023-04-17T07:05:00.333Z,980.1
2023-04-17T07:06:00.333Z,979.5
2023-04-17T07:07:00.325Z,980.1
2023-04-17T07:08:00.338Z,979.9
2023-04-17T07:09:00.332Z,979.7
2023-04-17T07:10:00.332Z,979.7
2023-04-17T07:11:00.339Z,979.7
2023-04-17T07:12:00.346Z,979.5
2023-04-17T07:13:00.320Z,978.8
2023-04-17T07:14:00.357Z,979.3
2023-04-17T07:15:00.348Z,978.4
2023-04-17T07:16:00.431Z,979.3
2023-04-17T07:17:00.328Z,979.3
2023-04-17T07:18:00.346Z,979.3
2023-04-17T07:19:00.358Z,978.8
2023-04-17T07:20:00.358Z,978.6
2023-04-17T07:21:00.360Z,978.8
2023-04-17T07:22:00.340Z,978.8
2023-04-17T07:23:00.359Z,978.8
2023-04-17T07:24:00.388Z,979
2023-04-17T07:25:00.343Z,978.4
2023-04-17T07:26:00.339Z,978.4
2023-04-17T07:27:00.381Z,978.4
2023-04-17T07:28:01.402Z,978
2023-04-17T07:29:00.373Z,978
2023-04-17T07:30:00.388Z,978
2023-04-17T07:31:00.348Z,978.2
2023-04-17T07:32:00.492Z,977.5
2023-04-17T07:33:00.391Z,977.5
2023-04-17T07:34:00.367Z,976.7
2023-04-17T07:35:00.368Z,977.1
2023-04-17T07:36:00.365Z,977.5
2023-04-17T07:37:00.351Z,977.5
2023-04-17T07:38:00.390Z,977.5
2023-04-17T07:39:00.364Z,977.7
2023-04-17T07:40:00.363Z,977.5
2023-04-17T07:41:00.365Z,976
2023-04-17T07:42:00.371Z,976.4
2023-04-17T07:43:00.351Z,975.6
2023-04-17T07:44:00.385Z,976.7
2023-04-17T07:45:00.379Z,976.9
2023-04-17T07:46:00.372Z,976.2
2023-04-17T07:47:00.452Z,976.2
2023-04-17T07:48:00.470Z,976.4
2023-04-17T07:49:00.433Z,976.7
2023-04-17T07:50:00.363Z,976.4
2023-04-17T07:51:00.404Z,976.2
2023-04-17T07:52:00.372Z,976.7
2023-04-17T07:53:00.384Z,976.7
2023-04-17T07:54:00.388Z,976.7
2023-04-17T07:55:00.374Z,976.7
2023-04-17T07:56:00.402Z,976.7
2023-04-17T07:57:00.389Z,977.1
2023-04-17T07:58:00.366Z,976.2
2023-04-17T07:59:00.388Z,977.1
2023-04-17T08:00:00.380Z,977.5
2023-04-17T08:01:00.419Z,977.5
2023-04-17T08:02:00.408Z,977.5
2023-04-17T08:03:00.588Z,977.5
2023-04-17T08:04:00.571Z,977.5
2023-04-17T08:05:00.556Z,977.7
2023-04-17T08:06:00.433Z,978
2023-04-17T08:07:00.423Z,977.7
2023-04-17T08:08:00.389Z,978
2023-04-17T08:09:00.382Z,978
2023-04-17T08:10:00.380Z,978
2023-04-17T08:11:00.423Z,978
2023-04-17T08:12:00.402Z,977.7
2023-04-17T08:13:00.410Z,978
2023-04-17T08:14:00.462Z,978.4
2023-04-17T08:15:00.451Z,977.5
2023-04-17T08:16:00.447Z,977.3
2023-04-17T08:17:00.429Z,977.7
2023-04-17T08:18:00.476Z,977.5
2023-04-17T08:19:00.407Z,977.5
2023-04-17T08:20:00.400Z,977.5
2023-04-17T08:21:00.405Z,977.5
2023-04-17T08:22:00.429Z,977.5
2023-04-17T08:23:00.413Z,977.5
2023-04-17T08:24:00.392Z,976.7
2023-04-17T08:25:00.421Z,977.3
2023-04-17T08:26:00.426Z,976.7
2023-04-17T08:27:00.435Z,975.8
2023-04-17T08:28:00.421Z,976.4
2023-04-17T08:29:00.437Z,976.4
2023-04-17T08:30:00.418Z,977.1
2023-04-17T08:31:00.445Z,977.3
2023-04-17T08:32:13.320Z,977.3
2023-04-17T08:33:00.466Z,977.5
2023-04-17T08:34:10.946Z,977.5
2023-04-17T08:35:00.426Z,977.1
2023-04-17T08:36:02.203Z,977.3
2023-04-17T08:37:00.403Z,977.5
2023-04-17T08:38:00.448Z,976.4
2023-04-17T08:39:00.446Z,976.9
2023-04-17T08:40:00.436Z,977.1
2023-04-17T08:41:00.423Z,976.4
2023-04-17T08:42:00.454Z,976
2023-04-17T08:43:00.441Z,975.8
2023-04-17T08:44:00.439Z,975.6
2023-04-17T08:45:00.436Z,976.7
2023-04-17T08:46:00.484Z,976.2
2023-04-17T08:47:00.465Z,975.4
2023-04-17T08:48:00.482Z,975.4
2023-04-17T08:49:00.435Z,975.1
2023-04-17T08:50:00.435Z,974.9
2023-04-17T08:51:00.424Z,975.1
2023-04-17T08:52:00.424Z,974.9
2023-04-17T08:53:00.455Z,975.4
2023-04-17T08:54:00.448Z,975.8
2023-04-17T08:55:00.432Z,975.4
2023-04-17T08:56:02.270Z,975.4
2023-04-17T08:57:00.464Z,974.9
2023-04-17T08:58:00.450Z,974.7
2023-04-17T08:59:00.442Z,974.5
2023-04-17T09:00:00.442Z,974.5
2023-04-17T09:01:00.460Z,972.7
2023-04-17T09:02:00.513Z,973.6
2023-04-17T09:03:00.676Z,974
2023-04-17T09:04:00.681Z,974.5
2023-04-17T09:05:00.689Z,973.8
2023-04-17T09:06:00.446Z,974.5
2023-04-17T09:07:00.462Z,973.2
2023-04-17T09:08:00.459Z,973.6
2023-04-17T09:09:00.475Z,973.2
2023-04-17T09:10:00.455Z,973.2
2023-04-17T09:11:00.487Z,972.3
2023-04-17T09:12:00.470Z,971.4
2023-04-17T09:13:00.488Z,971.4
2023-04-17T09:14:00.460Z,971
2023-04-17T09:15:00.489Z,970.6
2023-04-17T09:16:00.489Z,971
2023-04-17T09:17:00.458Z,971.4
2023-04-17T09:18:00.515Z,971.4
2023-04-17T09:19:00.490Z,970.6
2023-04-17T09:20:00.472Z,969.7
2023-04-17T09:21:00.478Z,968.4
2023-04-17T09:22:00.477Z,968.8
2023-04-17T09:23:00.502Z,968.4
2023-04-17T09:24:00.472Z,968.4
2023-04-17T09:25:00.464Z,969.3
2023-04-17T09:26:00.477Z,969.3
2023-04-17T09:27:00.488Z,969.9
2023-04-17T09:28:00.474Z,969.7
2023-04-17T09:29:00.485Z,968.6
2023-04-17T09:30:00.488Z,969
2023-04-17T09:31:00.494Z,968.8
2023-04-17T09:32:00.514Z,969.3
2023-04-17T09:33:00.530Z,969.3
2023-04-17T09:34:00.495Z,969.3
2023-04-17T09:35:00.479Z,969.3
2023-04-17T09:36:00.476Z,969.3
2023-04-17T09:37:00.487Z,969.7
2023-04-17T09:38:00.502Z,969.7
2023-04-17T09:39:00.487Z,969.7
2023-04-17T09:40:00.499Z,969
2023-04-17T09:41:00.481Z,969.7
2023-04-17T09:42:03.020Z,968
2023-04-17T09:43:00.505Z,968.8
2023-04-17T09:44:00.504Z,968.6
2023-04-17T09:45:00.480Z,968
2023-04-17T09:46:00.496Z,968.2
2023-04-17T09:47:00.690Z,968.8
2023-04-17T09:48:00.572Z,968.8
2023-04-17T09:49:00.499Z,968.2
2023-04-17T09:50:00.505Z,968.8
2023-04-17T09:51:00.513Z,969
2023-04-17T09:52:00.526Z,969.3
2023-04-17T09:53:00.523Z,969.3
2023-04-17T09:54:00.493Z,968.8
2023-04-17T09:55:00.497Z,969.3
2023-04-17T09:56:00.499Z,968.8
2023-04-17T09:57:00.515Z,969
2023-04-17T09:58:00.512Z,969.5
2023-04-17T09:59:00.511Z,967.5
2023-04-17T10:00:00.490Z,967.7
2023-04-17T10:01:00.529Z,968
2023-04-17T10:02:00.613Z,968.4
2023-04-17T10:03:00.777Z,968.6
2023-04-17T10:04:00.641Z,969.7
2023-04-17T10:05:00.505Z,969
2023-04-17T10:06:00.522Z,967.1
2023-04-17T10:07:00.499Z,968.2
2023-04-17T10:08:00.511Z,968.4
2023-04-17T10:09:00.512Z,967.7
2023-04-17T10:10:00.504Z,966.2
2023-04-17T10:11:00.529Z,966.2
2023-04-17T10:12:00.525Z,966.2
2023-04-17T10:13:00.503Z,966.2
2023-04-17T10:14:00.521Z,965.8
2023-04-17T10:15:00.522Z,967.1
2023-04-17T10:16:00.570Z,967.1
2023-04-17T10:17:00.522Z,966.2
2023-04-17T10:18:00.566Z,966.2
2023-04-17T10:19:00.531Z,966.2
2023-04-17T10:20:00.520Z,964.3
2023-04-17T10:21:00.515Z,964.5
2023-04-17T10:22:00.532Z,964.9
2023-04-17T10:23:00.531Z,965.4
2023-04-17T10:24:00.538Z,965.1
2023-04-17T10:25:00.526Z,966
2023-04-17T10:26:00.518Z,964.5
2023-04-17T10:27:00.536Z,963.2
2023-04-17T10:28:00.541Z,964.5
2023-04-17T10:29:00.567Z,964.5
2023-04-17T10:30:00.538Z,965.1
2023-04-17T10:31:00.615Z,964.3
2023-04-17T10:32:00.595Z,963.8
2023-04-17T10:33:00.567Z,963.8
2023-04-17T10:34:00.559Z,964.3
2023-04-17T10:35:00.570Z,964.5
2023-04-17T10:36:00.553Z,965.4
2023-04-17T10:37:00.559Z,962.7
2023-04-17T10:38:00.556Z,963.2
2023-04-17T10:39:00.548Z,963.6
2023-04-17T10:40:00.556Z,962.3
2023-04-17T10:41:00.536Z,961
2023-04-17T10:42:00.575Z,961.2
2023-04-17T10:43:00.566Z,961
2023-04-17T10:44:00.542Z,962.7
2023-04-17T10:45:00.550Z,963.4
2023-04-17T10:46:00.601Z,963.6
2023-04-17T10:47:00.572Z,962.3
2023-04-17T10:48:00.687Z,962.7
2023-04-17T10:49:00.560Z,958.8
2023-04-17T10:50:00.692Z,959.7
2023-04-17T10:51:00.576Z,961
2023-04-17T10:52:00.577Z,960.8
2023-04-17T10:53:00.560Z,961
2023-04-17T10:54:00.607Z,961.9
2023-04-17T10:55:00.561Z,961.9
2023-04-17T10:56:00.577Z,961.9
2023-04-17T10:57:00.574Z,961.4
2023-04-17T10:58:00.601Z,962.7
2023-04-17T10:59:00.586Z,963.6
2023-04-17T11:00:01.157Z,962.7
2023-04-17T11:01:00.649Z,963
2023-04-17T11:02:01.388Z,963.4
2023-04-17T11:03:00.740Z,963.2
2023-04-17T11:04:00.693Z,963.6
2023-04-17T11:05:00.909Z,962.3
2023-04-17T11:06:00.602Z,961
2023-04-17T11:07:00.592Z,960.8
2023-04-17T11:08:00.584Z,961.9
2023-04-17T11:09:00.600Z,961.4
2023-04-17T11:10:00.701Z,961
2023-04-17T11:11:00.675Z,960.6
2023-04-17T11:12:00.603Z,959.3
2023-04-17T11:13:00.717Z,960.4
2023-04-17T11:14:00.682Z,961
2023-04-17T11:15:00.682Z,959.3
2023-04-17T11:16:00.745Z,961.4
2023-04-17T11:17:00.715Z,961
2023-04-17T11:18:00.697Z,961.4
2023-04-17T11:19:00.559Z,960.8
2023-04-17T11:20:00.637Z,960.4
2023-04-17T11:21:00.585Z,961.9
2023-04-17T11:22:00.575Z,961.9
2023-04-17T11:23:00.613Z,962.3
2023-04-17T11:24:00.451Z,959.9
2023-04-17T11:25:00.583Z,960.8
2023-04-17T11:26:00.462Z,960.6
2023-04-17T11:27:00.440Z,959.9
2023-04-17T11:28:00.411Z,960.6
2023-04-17T11:29:00.410Z,961
2023-04-17T11:30:00.682Z,960.6
2023-04-17T11:31:00.423Z,959.3
2023-04-17T11:32:00.354Z,958.8
2023-04-17T11:33:00.462Z,959.3
2023-04-17T11:34:00.528Z,959
2023-04-17T11:35:00.392Z,958.8
2023-04-17T11:36:00.317Z,958.8
2023-04-17T11:37:00.251Z,958.4
2023-04-17T11:38:00.231Z,959.3
2023-04-17T11:39:00.348Z,959.9
2023-04-17T11:40:00.192Z,960.6
2023-04-17T11:41:00.200Z,958.8
2023-04-17T11:42:00.190Z,957.7
2023-04-17T11:43:00.191Z,955.4
2023-04-17T11:44:00.176Z,956.7
2023-04-17T11:45:01.268Z,956.2
2023-04-17T11:46:00.251Z,957.1
2023-04-17T11:47:00.279Z,955.8
2023-04-17T11:48:00.238Z,955.8
2023-04-17T11:49:00.199Z,956.7
2023-04-17T11:50:00.206Z,954.5
2023-04-17T11:51:00.196Z,954.9
2023-04-17T11:52:00.263Z,955.8
2023-04-17T11:53:00.189Z,955.8
2023-04-17T11:54:00.224Z,954.5
2023-04-17T11:55:00.210Z,956.7
2023-04-17T11:56:00.187Z,956.2
2023-04-17T11:57:00.203Z,955.4
2023-04-17T11:58:00.192Z,955.4
2023-04-17T11:59:00.210Z,956.2
2023-04-17T12:00:00.238Z,955.8
2023-04-17T12:01:00.184Z,955.8
2023-04-17T12:02:00.275Z,957.1
2023-04-17T12:03:00.377Z,956.7
2023-04-17T12:04:00.490Z,956.9
2023-04-17T12:05:00.365Z,955.8
2023-04-17T12:06:00.265Z,957.7
2023-04-17T12:07:00.200Z,957.3
2023-04-17T12:08:00.204Z,957.5
2023-04-17T12:09:00.237Z,957.5
2023-04-17T12:10:00.203Z,958.4
2023-04-17T12:11:00.201Z,957.5
2023-04-17T12:12:00.220Z,957.5
2023-04-17T12:13:00.214Z,958.2
2023-04-17T12:14:00.223Z,958.8
2023-04-17T12:15:00.261Z,958.4
2023-04-17T12:16:00.301Z,959.7
2023-04-17T12:17:00.222Z,958.4
2023-04-17T12:18:00.280Z,960.1
2023-04-17T12:19:00.231Z,959.7
2023-04-17T12:20:00.219Z,958
2023-04-17T12:21:00.241Z,958.2
2023-04-17T12:22:00.239Z,958
2023-04-17T12:23:00.223Z,956.7
2023-04-17T12:24:00.237Z,958.2
2023-04-17T12:25:00.250Z,958.8
2023-04-17T12:26:00.213Z,956.4
2023-04-17T12:27:00.210Z,957.7
2023-04-17T12:28:00.225Z,958.4
2023-04-17T12:29:00.278Z,954
2023-04-17T12:30:00.232Z,955.4
2023-04-17T12:31:00.317Z,955.4
2023-04-17T12:32:00.385Z,954.9
2023-04-17T12:33:00.288Z,955.6
2023-04-17T12:34:00.246Z,956.7
2023-04-17T12:35:00.244Z,956.7
2023-04-17T12:36:00.268Z,956.2
2023-04-17T12:37:00.227Z,956.7
2023-04-17T12:38:00.235Z,956.7
2023-04-17T12:39:00.253Z,957.1
2023-04-17T12:40:00.223Z,956.7
2023-04-17T12:41:00.246Z,958
2023-04-17T12:42:00.250Z,958
2023-04-17T12:43:00.265Z,958.8
2023-04-17T12:44:00.348Z,958
2023-04-17T12:45:00.238Z,957.5
2023-04-17T12:46:00.344Z,958.4
2023-04-17T12:47:00.250Z,958.2
2023-04-17T12:48:00.410Z,958.4
2023-04-17T12:49:00.268Z,958.4
2023-04-17T12:50:00.367Z,958.6
2023-04-17T12:51:00.372Z,959.3
2023-04-17T12:52:02.952Z,959
2023-04-17T12:53:00.366Z,959.3
2023-04-17T12:54:00.399Z,959.3
2023-04-17T12:55:00.408Z,958.6
2023-04-17T12:56:00.329Z,958.6
2023-04-17T12:57:00.510Z,958